Aviation Digital Data Service (ADDS)

Output produced by METARs form (1922 UTC 31 July 2015)
found at http://aviationweather.gov/adds/metars/
 
KIAD 311727Z 3118/0124 30006KT P6SM FEW070 FEW250